createdAt,value
2023-02-11T00:01:41.665Z,80.22
2023-02-11T00:04:12.103Z,52.42
2023-02-11T00:06:41.018Z,68.00
2023-02-11T00:09:09.945Z,118.88
2023-02-11T00:11:38.901Z,60.38
2023-02-11T00:14:09.049Z,98.97
2023-02-11T00:16:37.945Z,72.22
2023-02-11T00:19:07.274Z,73.88
2023-02-11T00:21:37.508Z,37.35
2023-02-11T00:24:06.800Z,75.80
2023-02-11T00:26:36.704Z,66.68
2023-02-11T00:29:06.278Z,45.25
2023-02-11T00:31:35.564Z,44.75
2023-02-11T00:34:07.429Z,62.08
2023-02-11T00:36:37.790Z,66.05
2023-02-11T00:39:06.864Z,45.10
2023-02-11T00:41:37.627Z,45.72
2023-02-11T00:44:06.656Z,78.05
2023-02-11T00:46:35.646Z,48.70
2023-02-11T00:49:04.533Z,57.55
2023-02-11T00:51:33.426Z,57.35
2023-02-11T00:54:03.694Z,34.58
2023-02-11T00:56:33.110Z,50.35
2023-02-11T00:59:02.006Z,47.22
2023-02-11T01:01:30.920Z,40.13
2023-02-11T01:03:59.801Z,36.83
2023-02-11T01:06:28.683Z,41.03
2023-02-11T01:08:57.553Z,46.80
2023-02-11T01:11:27.819Z,53.38
2023-02-11T01:13:56.663Z,45.30
2023-02-11T01:16:25.589Z,43.03
2023-02-11T01:18:55.468Z,38.78
2023-02-11T01:21:24.287Z,45.28
2023-02-11T01:23:53.671Z,40.90
2023-02-11T01:26:22.503Z,37.13
2023-02-11T01:28:53.736Z,42.85
2023-02-11T01:31:22.637Z,16.52
2023-02-11T01:33:51.576Z,31.70
2023-02-11T01:36:20.476Z,29.25
2023-02-11T01:38:50.025Z,24.83
2023-02-11T01:41:22.664Z,40.72
2023-02-11T01:43:52.988Z,46.45
2023-02-11T01:46:40.508Z,43.83
2023-02-11T01:49:14.360Z,42.95
2023-02-11T01:51:46.683Z,27.27
2023-02-11T01:54:38.901Z,34.78
2023-02-11T01:57:25.119Z,29.20
2023-02-11T02:00:02.621Z,31.83
2023-02-11T02:02:49.238Z,31.85
2023-02-11T02:05:30.229Z,29.67
2023-02-11T02:08:07.832Z,32.70
2023-02-11T02:10:37.921Z,41.80
2023-02-11T02:13:06.749Z,24.20
2023-02-11T02:15:38.504Z,14.63
2023-02-11T02:18:30.769Z,19.58
2023-02-11T02:21:33.469Z,15.55
2023-02-11T02:24:23.117Z,26.48
2023-02-11T02:27:17.248Z,33.47
2023-02-11T02:30:17.316Z,14.23
2023-02-11T02:33:07.961Z,29.75
2023-02-11T02:35:48.461Z,30.55
2023-02-11T02:38:24.557Z,33.00
2023-02-11T02:40:57.792Z,42.90
2023-02-11T02:43:28.279Z,39.22
2023-02-11T02:45:57.565Z,35.88
2023-02-11T02:48:29.591Z,27.70
2023-02-11T02:51:09.790Z,32.17
2023-02-11T02:53:53.173Z,28.92
2023-02-11T02:56:29.745Z,16.17
2023-02-11T02:59:16.302Z,11.25
2023-02-11T03:01:56.191Z,19.23
2023-02-11T03:04:36.106Z,34.00
2023-02-11T03:07:12.830Z,19.35
2023-02-11T03:09:46.127Z,21.50
2023-02-11T03:12:16.998Z,17.63
2023-02-11T03:14:47.245Z,11.82
2023-02-11T03:17:17.933Z,11.25
2023-02-11T03:19:51.258Z,22.70
2023-02-11T03:22:23.464Z,14.38
2023-02-11T03:24:52.789Z,21.23
2023-02-11T03:27:27.092Z,18.55
2023-02-11T03:32:35.021Z,11.98
2023-02-11T03:37:40.941Z,27.08
2023-02-11T03:40:12.560Z,22.35
2023-02-11T03:42:44.980Z,17.77
2023-02-11T03:45:19.915Z,38.47
2023-02-11T03:47:53.400Z,14.75
2023-02-11T03:50:25.562Z,28.17
2023-02-11T03:52:57.252Z,24.35
2023-02-11T03:55:27.811Z,26.02
2023-02-11T03:57:56.811Z,19.95
2023-02-11T04:00:32.290Z,34.85
2023-02-11T04:03:02.117Z,17.30
2023-02-11T04:05:32.740Z,15.40
2023-02-11T04:08:02.063Z,18.73
2023-02-11T04:10:31.226Z,17.55
2023-02-11T04:13:00.137Z,12.05
2023-02-11T04:15:29.650Z,15.00
2023-02-11T04:17:58.502Z,12.88
2023-02-11T04:20:27.338Z,19.25
2023-02-11T04:22:57.533Z,13.43
2023-02-11T04:25:27.386Z,12.25
2023-02-11T04:27:56.300Z,17.55
2023-02-11T04:30:26.307Z,18.55
2023-02-11T04:32:55.379Z,11.85
2023-02-11T04:35:24.189Z,22.60
2023-02-11T04:37:53.034Z,25.38
2023-02-11T04:40:23.244Z,23.58
2023-02-11T04:42:52.083Z,18.02
2023-02-11T04:45:20.864Z,26.90
2023-02-11T04:47:49.659Z,30.25
2023-02-11T04:50:18.764Z,22.08
2023-02-11T04:52:47.564Z,33.70
2023-02-11T04:55:16.418Z,47.55
2023-02-11T04:57:46.689Z,21.38
2023-02-11T05:00:16.772Z,18.67
2023-02-11T05:02:45.635Z,25.58
2023-02-11T05:05:14.523Z,21.63
2023-02-11T05:07:43.281Z,17.15
2023-02-11T05:10:12.156Z,23.90
2023-02-11T05:12:41.007Z,28.65
2023-02-11T05:15:11.404Z,25.63
2023-02-11T05:17:40.235Z,15.50
2023-02-11T05:20:10.231Z,23.67
2023-02-11T05:22:39.108Z,39.15
2023-02-11T05:25:08.562Z,18.13
2023-02-11T05:27:37.449Z,31.15
2023-02-11T05:30:07.969Z,26.30
2023-02-11T05:32:38.208Z,22.42
2023-02-11T05:35:08.100Z,31.58
2023-02-11T05:37:37.142Z,34.55
2023-02-11T05:40:07.172Z,53.05
2023-02-11T05:42:36.038Z,25.60
2023-02-11T05:45:05.358Z,27.60
2023-02-11T05:47:34.224Z,26.20
2023-02-11T05:50:04.605Z,30.08
2023-02-11T05:52:33.435Z,42.60
2023-02-11T05:55:03.222Z,36.85
2023-02-11T05:57:32.103Z,43.67
2023-02-11T06:00:00.942Z,67.30
2023-02-11T06:02:29.822Z,55.65
2023-02-11T06:04:58.781Z,89.03
2023-02-11T06:07:29.090Z,48.90
2023-02-11T06:09:57.983Z,70.25
2023-02-11T06:12:27.229Z,61.47
2023-02-11T06:14:56.078Z,45.90
2023-02-11T06:17:25.475Z,65.63
2023-02-11T06:19:54.280Z,73.70
2023-02-11T06:22:23.120Z,68.20
2023-02-11T06:25:01.314Z,32.45
2023-02-11T06:27:32.385Z,42.13
2023-02-11T06:30:01.312Z,69.88
2023-02-11T06:32:43.454Z,62.42
2023-02-11T06:35:14.499Z,49.75
2023-02-11T06:37:44.023Z,51.95
2023-02-11T06:40:14.490Z,60.55
2023-02-11T06:42:43.418Z,58.17
2023-02-11T06:45:13.391Z,36.00
2023-02-11T06:47:43.001Z,47.35
2023-02-11T06:50:15.046Z,61.08
2023-02-11T06:52:43.895Z,88.63
2023-02-11T06:55:14.340Z,56.55
2023-02-11T06:57:43.193Z,49.30
2023-02-11T07:00:13.339Z,51.72
2023-02-11T07:02:42.446Z,39.42
2023-02-11T07:05:12.182Z,17.27
2023-02-11T07:07:41.039Z,21.33
2023-02-11T07:10:10.615Z,21.00
2023-02-11T07:12:41.380Z,14.90
2023-02-11T07:15:10.734Z,23.15
2023-02-11T07:17:39.627Z,21.73
2023-02-11T07:20:09.200Z,29.80
2023-02-11T07:22:38.091Z,26.23
2023-02-11T07:25:07.447Z,27.63
2023-02-11T07:27:36.248Z,71.80
2023-02-11T07:30:07.591Z,36.25
2023-02-11T07:32:36.458Z,27.88
2023-02-11T07:35:05.903Z,20.42
2023-02-11T07:37:35.471Z,14.07
2023-02-11T07:40:05.260Z,31.48
2023-02-11T07:42:35.458Z,21.67
2023-02-11T07:45:04.400Z,24.58
2023-02-11T07:47:35.554Z,38.88
2023-02-11T07:50:04.435Z,16.92
2023-02-11T07:52:33.280Z,26.00
2023-02-11T07:55:04.876Z,43.17
2023-02-11T07:57:33.861Z,28.80
2023-02-11T08:00:03.196Z,23.67
2023-02-11T08:02:41.188Z,26.77
2023-02-11T08:05:10.145Z,13.15
2023-02-11T08:07:38.954Z,7.32
2023-02-11T08:10:08.173Z,18.45
2023-02-11T08:12:37.078Z,6.07
2023-02-11T08:15:06.205Z,15.70
2023-02-11T08:17:36.709Z,11.57
2023-02-11T08:20:07.888Z,11.15
2023-02-11T08:22:36.692Z,16.38
2023-02-11T08:25:06.052Z,13.55
2023-02-11T08:27:34.915Z,13.05
2023-02-11T08:30:04.506Z,20.98
2023-02-11T08:32:36.106Z,10.52
2023-02-11T08:35:08.088Z,8.63
2023-02-11T08:37:36.928Z,10.23
2023-02-11T08:40:06.634Z,10.40
2023-02-11T08:42:35.455Z,10.85
2023-02-11T08:45:05.236Z,17.40
2023-02-11T08:47:34.032Z,10.23
2023-02-11T08:50:03.321Z,4.22
2023-02-11T08:52:33.593Z,10.57
2023-02-11T08:55:02.402Z,11.63
2023-02-11T08:57:31.425Z,15.18
2023-02-11T09:00:00.327Z,13.68
2023-02-11T09:02:30.039Z,8.95
2023-02-11T09:04:58.955Z,17.88
2023-02-11T09:07:29.172Z,18.23
2023-02-11T09:09:59.376Z,13.35
2023-02-11T09:12:28.282Z,7.28
2023-02-11T09:14:57.129Z,12.80
2023-02-11T09:17:25.965Z,13.48
2023-02-11T09:19:54.817Z,21.45
2023-02-11T09:22:23.672Z,9.80
2023-02-11T09:24:52.533Z,9.73
2023-02-11T09:27:22.743Z,25.98
2023-02-11T09:29:51.806Z,12.45
2023-02-11T09:32:20.682Z,12.48
2023-02-11T09:34:49.580Z,10.65
2023-02-11T09:37:18.467Z,9.68
2023-02-11T09:39:47.303Z,7.30
2023-02-11T09:42:47.536Z,12.82
2023-02-11T09:45:21.109Z,9.70
2023-02-11T09:47:54.388Z,9.82
2023-02-11T09:50:29.070Z,11.73
2023-02-11T09:53:01.834Z,7.15
2023-02-11T09:55:37.660Z,13.07
2023-02-11T09:58:13.397Z,9.02
2023-02-11T10:00:46.217Z,10.95
2023-02-11T10:03:36.951Z,10.38
2023-02-11T10:06:20.782Z,10.13
2023-02-11T10:09:02.826Z,8.35
2023-02-11T10:11:41.812Z,14.00
2023-02-11T10:14:29.380Z,26.00
2023-02-11T10:17:13.392Z,15.38
2023-02-11T10:19:59.168Z,9.02
2023-02-11T10:22:33.123Z,10.18
2023-02-11T10:25:07.356Z,8.98
2023-02-11T10:27:37.427Z,8.77
2023-02-11T10:30:19.252Z,12.52
2023-02-11T10:32:53.294Z,8.23
2023-02-11T10:35:24.256Z,8.48
2023-02-11T10:37:53.090Z,8.77
2023-02-11T10:40:24.770Z,10.18
2023-02-11T10:42:56.640Z,8.88
2023-02-11T10:45:33.192Z,8.00
2023-02-11T10:48:02.409Z,9.93
2023-02-11T10:50:33.515Z,15.23
2023-02-11T10:53:14.346Z,9.35
2023-02-11T10:55:51.596Z,10.25
2023-02-11T10:58:26.892Z,9.32
2023-02-11T11:00:58.409Z,8.75
2023-02-11T11:03:29.867Z,18.65
2023-02-11T11:06:01.409Z,11.18
2023-02-11T11:08:40.710Z,10.25
2023-02-11T11:11:11.302Z,7.50
2023-02-11T11:13:41.855Z,7.22
2023-02-11T11:16:21.810Z,6.82
2023-02-11T11:18:52.472Z,5.88
2023-02-11T11:21:24.519Z,10.10
2023-02-11T11:23:58.539Z,7.97
2023-02-11T11:26:29.984Z,9.95
2023-02-11T11:29:02.940Z,13.85
2023-02-11T11:31:35.947Z,10.07
2023-02-11T11:34:16.666Z,11.82
2023-02-11T11:36:46.162Z,13.80
2023-02-11T11:39:25.423Z,9.02
2023-02-11T11:41:57.421Z,12.85
2023-02-11T11:44:29.934Z,9.80
2023-02-11T11:47:23.128Z,7.78
2023-02-11T11:50:03.292Z,9.35
2023-02-11T11:52:41.047Z,9.10
2023-02-11T11:55:17.713Z,12.85
2023-02-11T11:57:46.866Z,9.00
2023-02-11T12:00:18.463Z,12.10
2023-02-11T12:03:19.778Z,12.57
2023-02-11T12:06:00.799Z,12.95
2023-02-11T12:08:42.429Z,13.82
2023-02-11T12:11:21.026Z,11.55
2023-02-11T12:14:05.010Z,13.38
2023-02-11T12:16:43.567Z,12.65
2023-02-11T12:19:38.681Z,12.20
2023-02-11T12:22:13.014Z,14.73
2023-02-11T12:25:11.704Z,14.98
2023-02-11T12:27:52.659Z,10.45
2023-02-11T12:30:33.790Z,9.80
2023-02-11T12:33:13.007Z,9.75
2023-02-11T12:35:55.161Z,10.10
2023-02-11T12:38:41.164Z,13.00
2023-02-11T12:41:50.391Z,12.40
2023-02-11T12:44:26.992Z,15.10
2023-02-11T12:47:04.361Z,10.32
2023-02-11T12:49:47.748Z,12.40
2023-02-11T12:52:32.161Z,13.65
2023-02-11T12:55:06.255Z,12.98
2023-02-11T12:57:37.886Z,12.45
2023-02-11T13:00:15.798Z,20.23
2023-02-11T13:02:51.142Z,14.10
2023-02-11T13:05:26.306Z,13.25
2023-02-11T13:10:33.447Z,12.52
2023-02-11T13:13:20.483Z,14.93
2023-02-11T13:15:54.887Z,17.90
2023-02-11T13:18:48.318Z,13.75
2023-02-11T13:21:42.592Z,17.67
2023-02-11T13:24:23.652Z,16.83
2023-02-11T13:27:02.030Z,15.15
2023-02-11T13:29:37.578Z,12.93
2023-02-11T13:32:11.947Z,13.98
2023-02-11T13:35:00.190Z,17.00
2023-02-11T13:37:36.636Z,26.45
2023-02-11T13:40:21.638Z,58.58
2023-02-11T13:42:53.281Z,16.20
2023-02-11T13:45:31.341Z,13.32
2023-02-11T13:48:03.278Z,14.55
2023-02-11T13:50:37.684Z,16.25
2023-02-11T13:53:08.834Z,15.73
2023-02-11T13:55:49.005Z,21.92
2023-02-11T13:58:20.249Z,9.68
2023-02-11T14:00:51.659Z,15.80
2023-02-11T14:03:52.444Z,11.93
2023-02-11T14:06:42.184Z,10.95
2023-02-11T14:09:57.374Z,18.80
2023-02-11T14:12:38.351Z,13.05
2023-02-11T14:15:40.209Z,11.68
2023-02-11T14:18:44.628Z,12.30
2023-02-11T14:21:15.387Z,14.05
2023-02-11T14:23:44.853Z,13.63
2023-02-11T14:26:32.372Z,16.58
2023-02-11T14:29:14.127Z,19.33
2023-02-11T14:31:46.578Z,23.05
2023-02-11T14:34:47.419Z,21.65
2023-02-11T14:37:29.916Z,22.90
2023-02-11T14:40:06.946Z,15.98
2023-02-11T14:42:39.400Z,18.30
2023-02-11T14:45:12.959Z,18.00
2023-02-11T14:47:46.484Z,14.57
2023-02-11T14:50:19.813Z,12.52
2023-02-11T14:52:49.482Z,16.45
2023-02-11T14:55:30.583Z,14.98
2023-02-11T14:58:13.835Z,13.30
2023-02-11T15:00:56.327Z,14.57
2023-02-11T15:03:31.430Z,14.65
2023-02-11T15:08:32.043Z,14.65
2023-02-11T15:11:04.199Z,19.30
2023-02-11T15:13:34.303Z,28.65
2023-02-11T15:16:11.256Z,18.58
2023-02-11T15:18:48.229Z,18.30
2023-02-11T15:21:22.847Z,17.58
2023-02-11T15:24:00.521Z,15.65
2023-02-11T15:26:30.420Z,15.30
2023-02-11T15:28:59.831Z,13.88
2023-02-11T15:31:32.546Z,19.13
2023-02-11T15:34:09.397Z,15.68
2023-02-11T15:36:39.450Z,14.85
2023-02-11T15:39:19.027Z,19.45
2023-02-11T15:41:47.920Z,33.05
2023-02-11T15:44:30.774Z,18.35
2023-02-11T15:47:01.992Z,25.83
2023-02-11T15:49:33.424Z,22.80
2023-02-11T15:52:02.420Z,27.95
2023-02-11T15:54:32.798Z,25.10
2023-02-11T15:57:05.712Z,85.85
2023-02-11T15:59:39.268Z,73.50
2023-02-11T16:02:17.303Z,63.10
2023-02-11T16:04:52.275Z,57.33
2023-02-11T16:07:46.033Z,46.50
2023-02-11T16:10:23.792Z,57.85
2023-02-11T16:12:54.784Z,76.32
2023-02-11T16:15:32.239Z,154.88
2023-02-11T16:18:03.925Z,138.27
2023-02-11T16:20:33.690Z,82.95
2023-02-11T16:23:04.784Z,67.20
2023-02-11T16:25:36.544Z,137.27
2023-02-11T16:28:06.389Z,73.00
2023-02-11T16:30:38.224Z,72.97
2023-02-11T16:33:10.668Z,85.47
2023-02-11T16:35:40.472Z,112.85
2023-02-11T16:38:09.329Z,120.03
2023-02-11T16:40:38.212Z,104.72
2023-02-11T16:43:07.053Z,99.72
2023-02-11T16:45:39.033Z,101.85
2023-02-11T16:48:13.835Z,92.93
2023-02-11T16:50:46.805Z,97.20
2023-02-11T16:53:19.932Z,91.50
2023-02-11T16:55:49.131Z,102.05
2023-02-11T16:58:18.264Z,90.97
2023-02-11T17:00:50.007Z,111.20
2023-02-11T17:03:24.568Z,112.85
2023-02-11T17:05:55.839Z,129.85
2023-02-11T17:08:25.343Z,166.80
2023-02-11T17:10:54.552Z,141.65
2023-02-11T17:13:26.036Z,145.25
2023-02-11T17:15:55.447Z,145.75
2023-02-11T17:18:25.998Z,190.10
2023-02-11T17:20:54.874Z,186.40
2023-02-11T17:23:27.192Z,159.18
2023-02-11T17:25:57.448Z,188.02
2023-02-11T17:28:26.818Z,164.52
2023-02-11T17:30:58.206Z,165.75
2023-02-11T17:33:28.825Z,158.07
2023-02-11T17:35:57.699Z,113.07
2023-02-11T17:38:26.620Z,140.15
2023-02-11T17:40:59.788Z,147.63
2023-02-11T17:43:28.940Z,166.00
2023-02-11T17:45:58.302Z,122.15
2023-02-11T17:48:28.701Z,117.97
2023-02-11T17:50:57.728Z,136.38
2023-02-11T17:53:26.704Z,155.02
2023-02-11T17:55:56.438Z,145.52
2023-02-11T17:58:25.388Z,150.63
2023-02-11T18:00:54.435Z,148.13
2023-02-11T18:03:23.295Z,160.65
2023-02-11T18:05:53.802Z,166.38
2023-02-11T18:08:22.797Z,196.63
2023-02-11T18:10:51.681Z,171.25
2023-02-11T18:13:20.680Z,196.52
2023-02-11T18:15:49.904Z,192.70
2023-02-11T18:18:19.437Z,124.15
2023-02-11T18:20:58.713Z,177.55
2023-02-11T18:23:28.730Z,149.50
2023-02-11T18:25:57.837Z,130.50
2023-02-11T18:28:26.845Z,146.65
2023-02-11T18:30:59.594Z,240.52
2023-02-11T18:33:29.567Z,207.25
2023-02-11T18:35:59.855Z,154.77
2023-02-11T18:38:29.546Z,155.00
2023-02-11T18:40:59.244Z,184.55
2023-02-11T18:43:31.601Z,170.00
2023-02-11T18:46:02.129Z,153.07
2023-02-11T18:48:31.014Z,166.57
2023-02-11T18:51:02.086Z,146.05
2023-02-11T18:53:31.053Z,162.75
2023-02-11T18:56:02.390Z,156.95
2023-02-11T18:58:31.248Z,167.30
2023-02-11T19:01:00.186Z,169.65
2023-02-11T19:03:29.641Z,190.45
2023-02-11T19:05:58.520Z,178.40
2023-02-11T19:08:28.781Z,189.98
2023-02-11T19:10:57.670Z,166.00
2023-02-11T19:13:27.522Z,167.65
2023-02-11T19:15:56.650Z,183.70
2023-02-11T19:18:25.496Z,146.95
2023-02-11T19:20:54.461Z,151.00
2023-02-11T19:23:23.344Z,162.23
2023-02-11T19:25:53.703Z,170.23
2023-02-11T19:28:22.733Z,174.23
2023-02-11T19:30:51.852Z,141.40
2023-02-11T19:33:20.732Z,152.40
2023-02-11T19:35:49.969Z,154.85
2023-02-11T19:38:19.239Z,158.98
2023-02-11T19:40:56.090Z,184.00
2023-02-11T19:43:26.877Z,170.82
2023-02-11T19:45:56.749Z,161.77
2023-02-11T19:48:26.238Z,138.55
2023-02-11T19:50:55.116Z,152.00
2023-02-11T19:53:24.346Z,142.02
2023-02-11T19:55:53.468Z,180.18
2023-02-11T19:58:22.520Z,200.30
2023-02-11T20:00:52.681Z,193.65
2023-02-11T20:03:21.536Z,150.55
2023-02-11T20:05:51.797Z,122.97
2023-02-11T20:08:20.801Z,116.57
2023-02-11T20:10:49.657Z,105.78
2023-02-11T20:13:18.583Z,107.65
2023-02-11T20:15:47.622Z,102.70
2023-02-11T20:18:17.847Z,68.45
2023-02-11T20:20:46.648Z,80.65
2023-02-11T20:23:15.451Z,36.95
2023-02-11T20:25:44.298Z,102.78
2023-02-11T20:28:13.173Z,88.65
2023-02-11T20:30:42.317Z,79.25
2023-02-11T20:33:11.396Z,48.15
2023-02-11T20:35:41.756Z,57.05
2023-02-11T20:38:10.594Z,42.58
2023-02-11T20:40:39.401Z,45.67
2023-02-11T20:43:08.235Z,45.17
2023-02-11T20:45:37.044Z,57.60
2023-02-11T20:48:05.987Z,67.88
2023-02-11T20:50:35.156Z,66.93
2023-02-11T20:53:05.739Z,62.35
2023-02-11T20:55:38.254Z,70.32
2023-02-11T20:58:08.258Z,63.58
2023-02-11T21:00:37.855Z,154.80
2023-02-11T21:03:06.736Z,55.85
2023-02-11T21:05:36.104Z,65.68
2023-02-11T21:08:06.483Z,69.00
2023-02-11T21:10:35.282Z,85.80
2023-02-11T21:13:04.269Z,75.78
2023-02-11T21:15:33.175Z,67.80
2023-02-11T21:18:02.115Z,60.30
2023-02-11T21:20:30.907Z,82.55
2023-02-11T21:22:59.778Z,127.85
2023-02-11T21:25:30.835Z,100.57
2023-02-11T21:27:59.689Z,106.60
2023-02-11T21:30:28.548Z,84.00
2023-02-11T21:32:59.078Z,72.78
2023-02-11T21:35:28.024Z,67.43
2023-02-11T21:37:56.879Z,59.38
2023-02-11T21:40:27.469Z,56.55
2023-02-11T21:42:58.325Z,56.53
2023-02-11T21:45:27.233Z,70.15
2023-02-11T21:47:56.155Z,72.72
2023-02-11T21:50:25.280Z,55.10
2023-02-11T21:52:54.149Z,58.70
2023-02-11T21:55:23.364Z,56.88
2023-02-11T21:57:52.202Z,63.88
2023-02-11T22:00:22.952Z,69.10
2023-02-11T22:02:51.761Z,50.63
2023-02-11T22:05:20.924Z,65.03
2023-02-11T22:07:50.006Z,61.72
2023-02-11T22:10:19.076Z,52.78
2023-02-11T22:12:47.961Z,53.67
2023-02-11T22:15:16.866Z,88.60
2023-02-11T22:17:47.118Z,72.47
2023-02-11T22:20:16.940Z,41.20
2023-02-11T22:22:45.716Z,61.88
2023-02-11T22:25:14.727Z,49.15
2023-02-11T22:27:43.595Z,57.25
2023-02-11T22:30:14.655Z,65.80
2023-02-11T22:32:43.529Z,90.00
2023-02-11T22:35:13.863Z,103.32
2023-02-11T22:37:42.767Z,66.13
2023-02-11T22:40:12.641Z,86.75
2023-02-11T22:42:41.472Z,96.03
2023-02-11T22:45:10.801Z,79.45
2023-02-11T22:47:39.641Z,72.82
2023-02-11T22:50:09.307Z,75.45
2023-02-11T22:52:39.521Z,53.70
2023-02-11T22:55:08.840Z,67.13
2023-02-11T22:57:37.754Z,52.13
2023-02-11T23:00:09.836Z,63.85
2023-02-11T23:02:38.976Z,64.68
2023-02-11T23:05:08.575Z,69.13
2023-02-11T23:07:37.492Z,84.07
2023-02-11T23:10:09.106Z,73.90
2023-02-11T23:12:38.014Z,85.97
2023-02-11T23:15:07.241Z,92.45
2023-02-11T23:17:36.129Z,75.03
2023-02-11T23:20:05.527Z,90.28
2023-02-11T23:22:34.403Z,49.25
2023-02-11T23:25:03.886Z,59.70
2023-02-11T23:27:34.156Z,49.65
2023-02-11T23:30:04.687Z,68.22
2023-02-11T23:32:33.712Z,82.55
2023-02-11T23:35:02.571Z,56.80
2023-02-11T23:37:31.486Z,76.50
2023-02-11T23:40:00.322Z,45.95
2023-02-11T23:42:29.614Z,54.38
2023-02-11T23:44:59.879Z,43.78
2023-02-11T23:47:28.727Z,57.85
2023-02-11T23:49:59.598Z,53.08
2023-02-11T23:52:28.698Z,53.65
2023-02-11T23:54:57.492Z,54.40
2023-02-11T23:57:26.435Z,40.90
2023-02-11T23:59:55.264Z,62.45
